createdAt,value
2018-09-11T00:00:15.698Z,14.36
2018-09-11T00:02:45.117Z,14.35
2018-09-11T00:05:14.478Z,14.24
2018-09-11T00:07:43.859Z,14.18
2018-09-11T00:10:13.366Z,14.20
2018-09-11T00:12:42.798Z,14.26
2018-09-11T00:15:12.203Z,14.27
2018-09-11T00:17:41.574Z,14.28
2018-09-11T00:20:11.120Z,14.20
2018-09-11T00:22:40.519Z,14.23
2018-09-11T00:25:09.997Z,14.22
2018-09-11T00:27:39.439Z,14.25
2018-09-11T00:30:08.894Z,14.25
2018-09-11T00:32:38.273Z,14.10
2018-09-11T00:35:07.660Z,14.13
2018-09-11T00:37:37.042Z,14.11
2018-09-11T00:40:06.418Z,14.02
2018-09-11T00:42:35.903Z,13.99
2018-09-11T00:45:05.479Z,13.95
2018-09-11T00:47:34.873Z,13.93
2018-09-11T00:50:04.274Z,13.90
2018-09-11T00:52:33.655Z,13.88
2018-09-11T00:55:03.050Z,13.83
2018-09-11T00:57:32.438Z,13.75
2018-09-11T01:00:01.821Z,13.75
2018-09-11T01:02:31.194Z,13.71
2018-09-11T01:05:00.587Z,13.64
2018-09-11T01:07:29.995Z,13.65
2018-09-11T01:09:59.403Z,13.64
2018-09-11T01:12:28.753Z,13.64
2018-09-11T01:14:58.133Z,13.57
2018-09-11T01:17:27.582Z,13.52
2018-09-11T01:19:56.958Z,13.31
2018-09-11T01:22:26.978Z,13.38
2018-09-11T01:24:56.615Z,13.39
2018-09-11T01:27:26.256Z,13.45
2018-09-11T01:29:55.630Z,13.46
2018-09-11T01:32:24.994Z,13.47
2018-09-11T01:34:54.398Z,13.40
2018-09-11T01:37:23.774Z,13.36
2018-09-11T01:39:53.183Z,13.27
2018-09-11T01:42:22.562Z,13.21
2018-09-11T01:44:51.945Z,13.21
2018-09-11T01:47:21.347Z,13.11
2018-09-11T01:49:50.969Z,13.13
2018-09-11T01:52:20.350Z,13.10
2018-09-11T01:54:49.726Z,13.02
2018-09-11T01:57:19.110Z,13.04
2018-09-11T01:59:48.485Z,13.09
2018-09-11T02:02:17.873Z,13.06
2018-09-11T02:04:47.326Z,13.09
2018-09-11T02:07:16.686Z,13.05
2018-09-11T02:09:46.054Z,13.05
2018-09-11T02:12:15.442Z,13.07
2018-09-11T02:14:44.990Z,13.03
2018-09-11T02:17:14.377Z,12.95
2018-09-11T02:19:43.782Z,12.94
2018-09-11T02:22:13.162Z,12.99
2018-09-11T02:24:42.562Z,13.03
2018-09-11T02:27:11.924Z,12.97
2018-09-11T02:29:41.296Z,12.97
2018-09-11T02:32:10.674Z,12.88
2018-09-11T02:34:40.050Z,12.90
2018-09-11T02:37:09.434Z,12.88
2018-09-11T02:39:38.838Z,12.92
2018-09-11T02:42:08.239Z,12.88
2018-09-11T02:44:37.626Z,12.72
2018-09-11T02:47:07.038Z,12.72
2018-09-11T02:49:36.439Z,12.73
2018-09-11T02:52:05.918Z,12.75
2018-09-11T02:54:35.281Z,12.76
2018-09-11T02:57:04.735Z,12.75
2018-09-11T02:59:34.136Z,12.73
2018-09-11T03:02:03.506Z,12.52
2018-09-11T03:04:32.879Z,12.57
2018-09-11T03:07:02.254Z,12.46
2018-09-11T03:09:31.610Z,12.56
2018-09-11T03:12:00.990Z,12.61
2018-09-11T03:14:30.414Z,12.59
2018-09-11T03:16:59.813Z,12.62
2018-09-11T03:19:29.194Z,12.53
2018-09-11T03:21:58.626Z,12.56
2018-09-11T03:24:28.018Z,12.57
2018-09-11T03:26:57.393Z,12.62
2018-09-11T03:29:26.766Z,12.63
2018-09-11T03:31:56.131Z,12.52
2018-09-11T03:34:25.511Z,12.51
2018-09-11T03:36:54.894Z,12.53
2018-09-11T03:39:24.264Z,12.62
2018-09-11T03:41:53.656Z,12.23
2018-09-11T03:44:23.104Z,12.44
2018-09-11T03:46:52.465Z,12.52
2018-09-11T03:49:21.822Z,12.60
2018-09-11T03:51:51.226Z,12.68
2018-09-11T03:54:20.783Z,12.81
2018-09-11T03:56:50.258Z,12.88
2018-09-11T03:59:19.824Z,12.94
2018-09-11T04:01:49.166Z,12.98
2018-09-11T04:04:18.561Z,13.01
2018-09-11T04:06:47.938Z,13.05
2018-09-11T04:09:17.306Z,13.03
2018-09-11T04:11:46.697Z,12.97
2018-09-11T04:14:16.060Z,12.94
2018-09-11T04:16:45.439Z,12.89
2018-09-11T04:19:14.829Z,12.84
2018-09-11T04:21:44.202Z,12.83
2018-09-11T04:24:13.582Z,12.80
2018-09-11T04:26:43.006Z,12.79
2018-09-11T04:29:12.425Z,12.75
2018-09-11T04:31:41.786Z,12.83
2018-09-11T04:34:11.182Z,12.68
2018-09-11T04:36:40.782Z,12.44
2018-09-11T04:39:10.351Z,12.51
2018-09-11T04:41:39.712Z,12.54
2018-09-11T04:44:09.129Z,12.55
2018-09-11T04:46:38.627Z,12.55
2018-09-11T04:49:08.059Z,12.49
2018-09-11T04:51:37.425Z,12.42
2018-09-11T04:54:06.874Z,12.33
2018-09-11T04:56:36.263Z,12.33
2018-09-11T04:59:05.635Z,12.28
2018-09-11T05:01:34.990Z,12.31
2018-09-11T05:04:04.380Z,12.36
2018-09-11T05:06:33.771Z,12.36
2018-09-11T05:09:03.472Z,12.39
2018-09-11T05:11:32.976Z,12.24
2018-09-11T05:14:02.450Z,12.15
2018-09-11T05:16:31.829Z,12.17
2018-09-11T05:19:01.250Z,12.23
2018-09-11T05:21:31.922Z,12.26
2018-09-11T05:24:01.291Z,12.37
2018-09-11T05:26:30.675Z,12.43
2018-09-11T05:29:00.090Z,12.44
2018-09-11T05:31:29.455Z,12.41
2018-09-11T05:33:58.918Z,12.31
2018-09-11T05:36:28.306Z,12.52
2018-09-11T05:38:57.703Z,12.66
2018-09-11T05:41:27.054Z,12.81
2018-09-11T05:43:56.426Z,12.97
2018-09-11T05:46:25.846Z,13.06
2018-09-11T05:48:55.222Z,13.21
2018-09-11T05:51:24.663Z,13.40
2018-09-11T05:53:54.011Z,13.60
2018-09-11T05:56:23.399Z,13.82
2018-09-11T05:58:52.870Z,14.05
2018-09-11T06:01:22.294Z,14.28
2018-09-11T06:03:51.682Z,14.49
2018-09-11T06:06:21.067Z,14.61
2018-09-11T06:08:50.454Z,14.67
2018-09-11T06:11:19.827Z,14.77
2018-09-11T06:13:49.198Z,14.80
2018-09-11T06:16:18.588Z,14.81
2018-09-11T06:18:47.909Z,14.95
2018-09-11T06:21:17.305Z,15.00
2018-09-11T06:23:46.658Z,15.00
2018-09-11T06:26:16.061Z,14.98
2018-09-11T06:28:45.488Z,15.13
2018-09-11T06:31:14.846Z,14.96
2018-09-11T06:33:44.215Z,14.96
2018-09-11T06:36:13.599Z,15.27
2018-09-11T06:38:42.966Z,15.46
2018-09-11T06:41:12.425Z,15.55
2018-09-11T06:43:41.819Z,15.48
2018-09-11T06:46:16.035Z,15.81
2018-09-11T06:48:45.398Z,15.92
2018-09-11T06:51:14.782Z,15.90
2018-09-11T06:53:44.172Z,16.19
2018-09-11T06:56:13.583Z,16.45
2018-09-11T06:58:43.078Z,16.57
2018-09-11T07:01:12.443Z,16.67
2018-09-11T07:03:41.874Z,16.70
2018-09-11T07:06:11.254Z,16.74
2018-09-11T07:08:40.624Z,17.01
2018-09-11T07:11:09.992Z,16.95
2018-09-11T07:13:39.374Z,16.87
2018-09-11T07:16:08.774Z,16.84
2018-09-11T07:18:38.135Z,16.86
2018-09-11T07:21:08.767Z,17.11
2018-09-11T07:23:38.138Z,17.02
2018-09-11T07:26:08.821Z,17.33
2018-09-11T07:28:38.146Z,17.39
2018-09-11T07:31:08.754Z,17.44
2018-09-11T07:33:38.130Z,17.58
2018-09-11T07:36:08.730Z,17.56
2018-09-11T07:38:38.102Z,17.66
2018-09-11T07:41:09.570Z,17.88
2018-09-11T07:43:39.091Z,17.80
2018-09-11T07:46:08.837Z,17.98
2018-09-11T07:48:38.214Z,17.94
2018-09-11T07:51:08.865Z,17.98
2018-09-11T07:53:38.325Z,18.20
2018-09-11T07:56:08.784Z,18.18
2018-09-11T07:58:38.154Z,18.37
2018-09-11T08:01:08.766Z,18.36
2018-09-11T08:03:38.137Z,18.65
2018-09-11T08:06:08.819Z,18.68
2018-09-11T08:08:38.194Z,18.66
2018-09-11T08:11:08.802Z,18.96
2018-09-11T08:13:38.191Z,19.05
2018-09-11T08:16:08.814Z,19.14
2018-09-11T08:18:38.206Z,19.00
2018-09-11T08:21:08.830Z,19.06
2018-09-11T08:23:38.215Z,19.11
2018-09-11T08:26:08.807Z,19.27
2018-09-11T08:28:38.181Z,19.47
2018-09-11T08:31:08.798Z,19.65
2018-09-11T08:33:38.175Z,19.44
2018-09-11T08:36:08.870Z,19.20
2018-09-11T08:38:38.261Z,19.48
2018-09-11T08:41:08.974Z,19.71
2018-09-11T08:43:38.662Z,19.62
2018-09-11T08:46:09.743Z,19.71
2018-09-11T08:48:39.326Z,19.50
2018-09-11T08:51:10.690Z,19.74
2018-09-11T08:53:41.546Z,19.73
2018-09-11T08:56:11.099Z,19.81
2018-09-11T08:58:40.480Z,19.89
2018-09-11T09:01:09.834Z,20.08
2018-09-11T09:03:39.198Z,20.08
2018-09-11T09:06:08.846Z,20.17
2018-09-11T09:08:38.245Z,20.06
2018-09-11T09:11:08.810Z,20.44
2018-09-11T09:13:38.338Z,19.96
2018-09-11T09:16:08.954Z,20.46
2018-09-11T09:18:38.350Z,20.59
2018-09-11T09:21:08.950Z,20.75
2018-09-11T09:23:38.337Z,20.65
2018-09-11T09:26:08.961Z,20.65
2018-09-11T09:28:38.325Z,20.53
2018-09-11T09:31:08.930Z,20.65
2018-09-11T09:33:38.298Z,20.73
2018-09-11T09:36:08.886Z,20.83
2018-09-11T09:38:38.266Z,21.02
2018-09-11T09:41:08.866Z,20.88
2018-09-11T09:43:38.235Z,21.08
2018-09-11T09:46:08.854Z,21.16
2018-09-11T09:48:38.228Z,21.48
2018-09-11T09:51:08.827Z,21.27
2018-09-11T09:53:38.224Z,21.38
2018-09-11T09:56:07.607Z,21.32
2018-09-11T09:58:36.969Z,21.18
2018-09-11T10:01:11.494Z,21.18
2018-09-11T10:03:40.858Z,20.99
2018-09-11T10:06:10.266Z,21.18
2018-09-11T10:08:39.611Z,21.23
2018-09-11T10:11:09.209Z,21.39
2018-09-11T10:13:38.596Z,21.62
2018-09-11T10:16:09.238Z,21.55
2018-09-11T10:18:38.626Z,21.44
2018-09-11T10:21:09.279Z,21.43
2018-09-11T10:23:38.701Z,21.67
2018-09-11T10:26:09.242Z,21.88
2018-09-11T10:28:38.637Z,21.76
2018-09-11T10:31:09.253Z,22.02
2018-09-11T10:33:38.622Z,22.10
2018-09-11T10:36:09.255Z,22.39
2018-09-11T10:38:38.603Z,22.51
2018-09-11T10:41:09.363Z,22.55
2018-09-11T10:43:38.715Z,22.50
2018-09-11T10:46:09.371Z,22.69
2018-09-11T10:48:38.785Z,22.69
2018-09-11T10:51:09.398Z,22.56
2018-09-11T10:53:38.778Z,22.54
2018-09-11T10:56:09.375Z,22.77
2018-09-11T10:58:38.860Z,23.00
2018-09-11T11:01:09.449Z,23.04
2018-09-11T11:03:38.843Z,23.14
2018-09-11T11:06:09.442Z,23.19
2018-09-11T11:08:38.815Z,23.44
2018-09-11T11:11:09.413Z,23.69
2018-09-11T11:13:38.794Z,23.92
2018-09-11T11:16:09.746Z,23.90
2018-09-11T11:18:39.130Z,23.92
2018-09-11T11:21:09.466Z,23.73
2018-09-11T11:23:38.834Z,23.69
2018-09-11T11:26:09.434Z,23.74
2018-09-11T11:28:38.798Z,23.74
2018-09-11T11:31:08.183Z,23.70
2018-09-11T11:33:37.580Z,23.55
2018-09-11T11:36:07.038Z,23.90
2018-09-11T11:38:36.358Z,24.02
2018-09-11T11:41:05.934Z,24.07
2018-09-11T11:43:35.311Z,24.29
2018-09-11T11:46:04.710Z,24.47
2018-09-11T11:48:34.090Z,24.53
2018-09-11T11:51:03.614Z,24.73
2018-09-11T11:53:32.975Z,24.81
2018-09-11T11:56:02.423Z,25.08
2018-09-11T11:58:31.774Z,25.23
2018-09-11T12:01:01.135Z,25.28
2018-09-11T12:03:30.532Z,25.44
2018-09-11T12:05:59.906Z,25.54
2018-09-11T12:08:29.434Z,25.48
2018-09-11T12:10:58.850Z,25.29
2018-09-11T12:13:28.394Z,25.53
2018-09-11T12:15:57.709Z,26.01
2018-09-11T12:18:27.091Z,26.04
2018-09-11T12:20:56.462Z,25.83
2018-09-11T12:23:25.911Z,26.04
2018-09-11T12:25:55.302Z,25.95
2018-09-11T12:28:24.880Z,25.81
2018-09-11T12:30:54.528Z,26.54
2018-09-11T12:33:24.200Z,26.63
2018-09-11T12:35:53.925Z,26.66
2018-09-11T12:38:23.531Z,27.11
2018-09-11T12:40:53.127Z,27.63
2018-09-11T12:43:22.705Z,27.55
2018-09-11T12:45:52.348Z,27.76
2018-09-11T12:48:22.339Z,27.86
2018-09-11T12:50:51.724Z,27.59
2018-09-11T12:53:21.330Z,28.10
2018-09-11T12:55:50.998Z,28.39
2018-09-11T12:58:20.591Z,28.89
2018-09-11T13:00:50.212Z,28.91
2018-09-11T13:03:19.803Z,29.37
2018-09-11T13:05:49.448Z,29.23
2018-09-11T13:08:19.052Z,28.56
2018-09-11T13:10:48.565Z,28.78
2018-09-11T13:13:18.169Z,28.33
2018-09-11T13:15:47.826Z,28.16
2018-09-11T13:18:17.481Z,28.12
2018-09-11T13:20:47.077Z,28.17
2018-09-11T13:23:16.751Z,28.68
2018-09-11T13:25:46.446Z,28.99
2018-09-11T13:28:15.989Z,29.44
2018-09-11T13:30:45.630Z,29.62
2018-09-11T13:33:15.222Z,29.52
2018-09-11T13:35:44.875Z,29.45
2018-09-11T13:38:14.474Z,29.36
2018-09-11T13:40:44.228Z,30.04
2018-09-11T13:43:14.092Z,30.63
2018-09-11T13:45:43.985Z,30.45
2018-09-11T13:48:13.668Z,30.19
2018-09-11T13:50:43.294Z,30.38
2018-09-11T13:53:12.876Z,30.03
2018-09-11T13:55:42.552Z,29.78
2018-09-11T13:58:12.152Z,30.14
2018-09-11T14:00:41.910Z,30.21
2018-09-11T14:03:11.578Z,30.96
2018-09-11T14:05:41.303Z,31.64
2018-09-11T14:08:11.047Z,32.46
2018-09-11T14:10:40.667Z,31.43
2018-09-11T14:13:10.297Z,31.67
2018-09-11T14:15:39.953Z,31.95
2018-09-11T14:18:09.717Z,32.04
2018-09-11T14:20:39.579Z,31.54
2018-09-11T14:23:09.284Z,31.60
2018-09-11T14:25:39.086Z,32.74
2018-09-11T14:28:08.679Z,31.85
2018-09-11T14:30:38.357Z,31.52
2018-09-11T14:33:08.092Z,30.91
2018-09-11T14:35:37.811Z,30.85
2018-09-11T14:38:07.470Z,30.87
2018-09-11T14:40:37.278Z,31.57
2018-09-11T14:43:07.154Z,32.04
2018-09-11T14:45:36.742Z,32.12
2018-09-11T14:48:06.821Z,32.01
2018-09-11T14:50:36.401Z,31.94
2018-09-11T14:53:06.036Z,32.10
2018-09-11T14:55:35.661Z,32.36
2018-09-11T14:58:05.006Z,32.17
2018-09-11T15:00:34.387Z,32.69
2018-09-11T15:03:03.749Z,32.87
2018-09-11T15:05:33.118Z,32.78
2018-09-11T15:08:02.566Z,32.76
2018-09-11T15:10:31.905Z,32.41
2018-09-11T15:13:01.306Z,32.22
2018-09-11T15:15:30.690Z,32.06
2018-09-11T15:18:00.070Z,32.20
2018-09-11T15:20:29.511Z,32.07
2018-09-11T15:22:58.883Z,31.97
2018-09-11T15:25:28.237Z,32.77
2018-09-11T15:27:57.598Z,33.20
2018-09-11T15:30:26.987Z,33.34
2018-09-11T15:32:57.374Z,33.26
2018-09-11T15:35:26.782Z,33.43
2018-09-11T15:37:56.136Z,33.36
2018-09-11T15:40:25.512Z,34.24
2018-09-11T15:42:54.882Z,35.03
2018-09-11T15:45:24.290Z,34.77
2018-09-11T15:47:53.642Z,33.82
2018-09-11T15:50:23.021Z,33.51
2018-09-11T15:52:52.470Z,33.54
2018-09-11T15:55:21.831Z,33.31
2018-09-11T15:57:51.191Z,33.18
2018-09-11T16:00:20.576Z,33.38
2018-09-11T16:02:49.941Z,33.22
2018-09-11T16:05:19.306Z,33.14
2018-09-11T16:07:48.722Z,32.79
2018-09-11T16:10:18.082Z,32.67
2018-09-11T16:12:47.450Z,31.96
2018-09-11T16:15:16.872Z,31.29
2018-09-11T16:17:46.238Z,31.67
2018-09-11T16:20:15.606Z,31.87
2018-09-11T16:22:45.011Z,31.92
2018-09-11T16:25:14.371Z,31.87
2018-09-11T16:27:43.795Z,31.84
2018-09-11T16:30:13.291Z,31.66
2018-09-11T16:32:42.598Z,31.93
2018-09-11T16:35:11.959Z,32.15
2018-09-11T16:37:41.334Z,31.87
2018-09-11T16:40:10.790Z,31.96
2018-09-11T16:42:40.094Z,31.41
2018-09-11T16:45:09.762Z,31.25
2018-09-11T16:47:39.119Z,31.46
2018-09-11T16:50:08.590Z,30.95
2018-09-11T16:52:37.973Z,31.25
2018-09-11T16:55:07.416Z,30.88
2018-09-11T16:57:36.811Z,30.52
2018-09-11T17:00:06.291Z,30.12
2018-09-11T17:02:35.772Z,30.33
2018-09-11T17:05:05.090Z,30.26
2018-09-11T17:07:34.498Z,29.94
2018-09-11T17:10:03.885Z,29.67
2018-09-11T17:12:33.259Z,29.49
2018-09-11T17:15:02.726Z,29.06
2018-09-11T17:17:32.098Z,28.76
2018-09-11T17:20:01.580Z,28.54
2018-09-11T17:22:30.950Z,28.17
2018-09-11T17:25:00.316Z,27.94
2018-09-11T17:27:29.683Z,27.72
2018-09-11T17:29:59.050Z,27.46
2018-09-11T17:32:28.423Z,26.88
2018-09-11T17:34:57.794Z,27.36
2018-09-11T17:37:27.178Z,27.36
2018-09-11T17:39:56.558Z,27.24
2018-09-11T17:42:25.935Z,26.82
2018-09-11T17:44:55.334Z,26.69
2018-09-11T17:47:24.723Z,26.65
2018-09-11T17:49:54.092Z,26.39
2018-09-11T17:52:23.505Z,26.43
2018-09-11T17:54:52.879Z,26.03
2018-09-11T17:57:22.433Z,25.94
2018-09-11T17:59:51.814Z,25.90
2018-09-11T18:02:21.211Z,25.73
2018-09-11T18:04:50.647Z,25.70
2018-09-11T18:07:20.045Z,25.61
2018-09-11T18:09:49.407Z,25.51
2018-09-11T18:12:18.789Z,25.36
2018-09-11T18:14:48.255Z,25.15
2018-09-11T18:17:17.932Z,24.92
2018-09-11T18:19:47.301Z,24.68
2018-09-11T18:22:16.743Z,24.43
2018-09-11T18:24:46.170Z,24.08
2018-09-11T18:27:15.635Z,23.96
2018-09-11T18:29:45.587Z,23.87
2018-09-11T18:32:15.079Z,23.73
2018-09-11T18:34:44.607Z,23.59
2018-09-11T18:37:14.271Z,23.47
2018-09-11T18:39:45.667Z,23.28
2018-09-11T18:42:16.092Z,23.16
2018-09-11T18:44:48.282Z,22.98
2018-09-11T18:47:21.833Z,22.75
2018-09-11T18:49:54.882Z,22.44
2018-09-11T18:52:27.847Z,22.28
2018-09-11T18:55:00.826Z,22.20
2018-09-11T18:57:33.656Z,22.02
2018-09-11T19:00:06.802Z,22.05
2018-09-11T19:02:39.274Z,22.07
2018-09-11T19:05:11.819Z,22.02
2018-09-11T19:07:44.942Z,21.96
2018-09-11T19:10:17.803Z,21.90
2018-09-11T19:12:51.031Z,21.76
2018-09-11T19:15:23.990Z,21.73
2018-09-11T19:17:56.708Z,21.64
2018-09-11T19:20:30.395Z,21.53
2018-09-11T19:23:03.522Z,21.33
2018-09-11T19:25:36.203Z,21.27
2018-09-11T19:28:09.698Z,21.07
2018-09-11T19:30:42.540Z,21.12
2018-09-11T19:33:15.303Z,21.19
2018-09-11T19:35:48.196Z,21.18
2018-09-11T19:38:21.037Z,21.01
2018-09-11T19:40:54.026Z,20.82
2018-09-11T19:43:26.952Z,20.61
2018-09-11T19:45:59.801Z,20.64
2018-09-11T19:48:32.909Z,20.63
2018-09-11T19:51:05.817Z,20.65
2018-09-11T19:53:39.008Z,20.68
2018-09-11T19:56:11.992Z,20.67
2018-09-11T19:58:44.727Z,20.62
2018-09-11T20:01:17.720Z,20.55
2018-09-11T20:03:51.373Z,20.34
2018-09-11T20:06:24.045Z,20.12
2018-09-11T20:08:57.606Z,20.09
2018-09-11T20:11:29.276Z,19.95
2018-09-11T20:14:01.745Z,19.98
2018-09-11T20:16:34.471Z,19.98
2018-09-11T20:19:07.226Z,19.90
2018-09-11T20:21:38.397Z,19.81
2018-09-11T20:24:09.252Z,19.71
2018-09-11T20:26:40.655Z,19.72
2018-09-11T20:29:17.251Z,19.70
2018-09-11T20:31:46.762Z,19.63
2018-09-11T20:34:16.165Z,19.44
2018-09-11T20:36:45.697Z,19.40
2018-09-11T20:39:15.170Z,19.43
2018-09-11T20:41:44.607Z,19.40
2018-09-11T20:44:14.163Z,19.24
2018-09-11T20:46:43.988Z,19.11
2018-09-11T20:49:13.385Z,18.96
2018-09-11T20:51:43.418Z,18.94
2018-09-11T20:54:12.794Z,18.91
2018-09-11T20:56:42.198Z,18.87
2018-09-11T20:59:11.579Z,18.87
2018-09-11T21:01:41.062Z,18.79
2018-09-11T21:04:10.497Z,18.82
2018-09-11T21:06:39.903Z,18.87
2018-09-11T21:09:10.144Z,18.92
2018-09-11T21:11:39.526Z,18.87
2018-09-11T21:14:08.981Z,18.74
2018-09-11T21:16:38.435Z,18.68
2018-09-11T21:19:07.855Z,18.60
2018-09-11T21:21:37.237Z,18.56
2018-09-11T21:24:06.706Z,18.49
2018-09-11T21:26:36.198Z,18.22
2018-09-11T21:29:05.588Z,18.26
2018-09-11T21:31:34.970Z,18.13
2018-09-11T21:34:04.398Z,18.13
2018-09-11T21:36:33.890Z,18.10
2018-09-11T21:39:03.478Z,18.15
2018-09-11T21:41:32.886Z,18.14
2018-09-11T21:44:02.418Z,18.14
2018-09-11T21:46:31.921Z,18.08
2018-09-11T21:49:01.302Z,18.03
2018-09-11T21:51:30.673Z,18.03
2018-09-11T21:54:00.301Z,17.99
2018-09-11T21:56:29.670Z,17.85
2018-09-11T21:58:59.034Z,17.75
2018-09-11T22:25:15.102Z,17.21
2018-09-11T22:27:44.462Z,17.19
2018-09-11T22:30:13.851Z,17.04
2018-09-11T22:32:43.229Z,16.95
2018-09-11T22:35:12.589Z,16.91
2018-09-11T22:37:41.954Z,16.90
2018-09-11T22:40:11.332Z,16.82
2018-09-11T22:42:40.694Z,16.75
2018-09-11T22:45:10.057Z,16.67
2018-09-11T22:47:39.438Z,16.69
2018-09-11T22:50:08.883Z,16.67
2018-09-11T22:52:38.251Z,16.66
2018-09-11T22:55:07.658Z,16.66
2018-09-11T22:57:37.019Z,16.59
2018-09-11T23:00:06.469Z,16.48
2018-09-11T23:02:35.850Z,16.42
2018-09-11T23:05:05.290Z,16.33
2018-09-11T23:07:34.651Z,16.29
2018-09-11T23:10:04.054Z,16.21
2018-09-11T23:12:33.422Z,16.19
2018-09-11T23:15:02.798Z,16.14
2018-09-11T23:17:32.207Z,16.15
2018-09-11T23:20:01.599Z,16.07
2018-09-11T23:22:30.959Z,16.06
2018-09-11T23:25:00.342Z,16.06
2018-09-11T23:27:29.739Z,15.93
2018-09-11T23:29:59.094Z,15.94
2018-09-11T23:32:28.475Z,15.93
2018-09-11T23:34:57.846Z,15.90
2018-09-11T23:37:27.230Z,15.88
2018-09-11T23:39:56.618Z,15.87
2018-09-11T23:42:26.026Z,15.85
2018-09-11T23:44:55.403Z,15.85
2018-09-11T23:47:24.787Z,15.79
2018-09-11T23:49:54.250Z,15.77
2018-09-11T23:52:23.621Z,15.78
2018-09-11T23:54:53.012Z,15.66
2018-09-11T23:57:22.382Z,15.62
2018-09-11T23:59:51.746Z,15.64
